Pagrindinis puslapis
METAR-TAF:

METAR-TAF

Oro uostai :

North Perry Airport

Hollywood, Florida, Jungtinės Amerikos Valstijos

platuma: 25-59-56N, ilguma: 080-14-28W, Aukštis: 2 m

Dabartinis oras

Ataskaita buvo paskelbta 15 minutes, ne 10:22 UTC
Ramus vėjas
Temperatūra 17°C
Drėgmė 100%
Slėgis 1017 hPa
Matomumas: 1.2 km
Giedras dangus
rūkana

METAR: KHWO 251022Z AUTO 00000KT 3/4SM BR CLR 17/17 A3003 RMK AO2 T01720167 $

Laikas: 05:37 (10:37 UTC)


TAF: trūkstamas

Orai ataskaitas ir orų prognozės (METAR, TAF).

turimą stotys yra geltonos ir raudonos taškus žemėlapyje.

Perkelti pele per norėdami pamatyti stoties vardą.

Tada spustelėkite, norėdami matyti oro stebėjimo ir prognozės.

Norėdami pakeisti žemėlapį: spustelėkite ant žalios mygtukų su juodo kryžiaus žemyn,; žalią mygtuką su brūkšneliu, jei norite nutolinti; arba žalių rodyklių gretimoms žemėlapius.


METAR-TAF: